createdAt,value
2022-08-14T00:01:31.905Z,7.87
2022-08-14T00:03:58.880Z,7.50
2022-08-14T00:06:28.863Z,7.83
2022-08-14T00:08:59.132Z,8.00
2022-08-14T00:11:28.753Z,8.00
2022-08-14T00:14:02.015Z,7.80
2022-08-14T00:16:40.499Z,8.70
2022-08-14T00:19:18.578Z,7.63
2022-08-14T00:21:47.601Z,7.57
2022-08-14T00:24:28.371Z,8.03
2022-08-14T00:26:57.327Z,7.83
2022-08-14T00:29:25.187Z,7.67
2022-08-14T00:31:56.380Z,7.97
2022-08-14T00:34:36.161Z,8.10
2022-08-14T00:37:05.663Z,7.93
2022-08-14T00:39:32.835Z,7.77
2022-08-14T00:41:59.767Z,8.33
2022-08-14T00:44:32.237Z,7.87
2022-08-14T00:47:00.950Z,8.07
2022-08-14T00:49:28.709Z,8.13
2022-08-14T00:51:59.861Z,7.97
2022-08-14T00:54:26.695Z,7.80
2022-08-14T00:56:55.687Z,8.40
2022-08-14T00:59:28.081Z,9.13
2022-08-14T01:01:58.328Z,8.43
2022-08-14T01:04:37.662Z,9.10
2022-08-14T01:07:20.838Z,8.80
2022-08-14T01:09:53.395Z,7.70
2022-08-14T01:12:26.927Z,8.53
2022-08-14T01:15:01.910Z,8.63
2022-08-14T01:17:51.992Z,8.37
2022-08-14T01:20:39.254Z,8.60
2022-08-14T01:23:15.690Z,8.80
2022-08-14T01:25:46.132Z,8.70
2022-08-14T01:28:46.626Z,9.10
2022-08-14T01:31:00.419Z,8.63
2022-08-14T01:33:29.941Z,8.00
2022-08-14T01:36:04.560Z,8.97
2022-08-14T01:38:37.192Z,9.53
2022-08-14T01:41:06.522Z,8.27
2022-08-14T01:43:44.734Z,8.40
2022-08-14T01:46:24.935Z,8.77
2022-08-14T01:48:54.775Z,8.40
2022-08-14T01:51:24.526Z,9.13
2022-08-14T01:53:56.249Z,8.77
2022-08-14T01:56:37.348Z,8.30
2022-08-14T01:59:21.386Z,8.80
2022-08-14T02:01:58.599Z,8.37
2022-08-14T02:04:56.236Z,9.13
2022-08-14T02:07:15.489Z,9.13
2022-08-14T02:09:43.124Z,9.10
2022-08-14T02:12:09.906Z,9.17
2022-08-14T02:14:59.050Z,9.53
2022-08-14T02:17:28.151Z,9.80
2022-08-14T02:19:57.892Z,9.07
2022-08-14T02:22:28.644Z,9.60
2022-08-14T02:24:59.284Z,9.03
2022-08-14T02:28:22.970Z,8.57
2022-08-14T02:30:13.757Z,9.23
2022-08-14T02:32:40.686Z,9.40
2022-08-14T02:35:13.631Z,8.57
2022-08-14T02:37:48.102Z,8.70
2022-08-14T02:40:18.427Z,9.20
2022-08-14T02:42:54.201Z,9.20
2022-08-14T02:45:25.083Z,9.60
2022-08-14T02:48:01.356Z,9.37
2022-08-14T02:50:28.879Z,9.83
2022-08-14T02:53:03.263Z,9.40
2022-08-14T02:55:30.997Z,8.83
2022-08-14T02:58:03.513Z,9.63
2022-08-14T03:00:39.966Z,9.57
2022-08-14T03:03:08.099Z,9.27
2022-08-14T03:05:37.152Z,10.70
2022-08-14T03:08:09.718Z,9.90
2022-08-14T03:10:42.001Z,9.80
2022-08-14T03:13:19.606Z,10.10
2022-08-14T03:15:55.886Z,9.80
2022-08-14T03:18:30.626Z,9.33
2022-08-14T03:21:04.241Z,9.83
2022-08-14T03:23:37.976Z,9.77
2022-08-14T03:26:18.558Z,9.93
2022-08-14T03:29:01.062Z,10.10
2022-08-14T03:31:29.318Z,9.77
2022-08-14T03:33:59.897Z,9.40
2022-08-14T03:37:28.457Z,9.37
2022-08-14T03:39:23.875Z,10.40
2022-08-14T03:41:52.657Z,9.87
2022-08-14T03:45:27.469Z,10.60
2022-08-14T03:47:06.646Z,10.57
2022-08-14T03:49:36.371Z,10.40
2022-08-14T03:52:28.047Z,9.77
2022-08-14T03:54:57.241Z,10.67
2022-08-14T03:57:24.417Z,10.27
2022-08-14T03:59:51.476Z,10.80
2022-08-14T04:02:32.469Z,9.80
2022-08-14T04:05:11.711Z,10.37
2022-08-14T04:07:39.412Z,11.17
2022-08-14T04:10:17.601Z,10.73
2022-08-14T04:12:59.943Z,10.23
2022-08-14T04:15:31.323Z,11.00
2022-08-14T04:18:02.426Z,10.17
2022-08-14T04:20:31.328Z,10.77
2022-08-14T04:22:58.085Z,10.57
2022-08-14T04:25:24.844Z,9.80
2022-08-14T04:28:01.786Z,9.90
2022-08-14T04:30:32.935Z,11.27
2022-08-14T04:33:07.653Z,10.70
2022-08-14T04:35:56.789Z,10.63
2022-08-14T04:38:42.623Z,10.77
2022-08-14T04:41:30.225Z,10.40
2022-08-14T04:43:57.927Z,10.63
2022-08-14T04:46:54.735Z,10.10
2022-08-14T04:49:15.285Z,10.17
2022-08-14T04:51:46.872Z,10.60
2022-08-14T04:54:22.876Z,9.57
2022-08-14T04:56:51.418Z,9.83
2022-08-14T04:59:21.909Z,8.87
2022-08-14T05:01:52.798Z,9.03
2022-08-14T05:04:22.115Z,8.43
2022-08-14T05:06:53.649Z,8.83
2022-08-14T05:09:21.911Z,8.23
2022-08-14T05:11:49.864Z,8.40
2022-08-14T05:14:45.204Z,8.50
2022-08-14T05:17:07.492Z,8.43
2022-08-14T05:19:44.280Z,8.63
2022-08-14T05:22:21.637Z,8.80
2022-08-14T05:24:51.213Z,8.43
2022-08-14T05:27:20.031Z,8.07
2022-08-14T05:29:50.884Z,8.67
2022-08-14T05:32:17.810Z,7.90
2022-08-14T05:34:45.718Z,8.00
2022-08-14T05:37:15.415Z,8.73
2022-08-14T05:39:42.971Z,8.07
2022-08-14T05:42:21.520Z,8.23
2022-08-14T05:44:55.584Z,7.53
2022-08-14T05:47:23.215Z,7.50
2022-08-14T05:49:50.438Z,8.03
2022-08-14T05:52:18.818Z,7.53
2022-08-14T05:54:53.435Z,7.17
2022-08-14T05:57:22.208Z,7.65
2022-08-14T05:59:49.074Z,7.50
2022-08-14T06:02:18.224Z,7.20
2022-08-14T06:04:49.486Z,7.47
2022-08-14T06:07:16.852Z,8.02
2022-08-14T06:09:52.407Z,7.78
2022-08-14T06:12:55.347Z,7.30
2022-08-14T06:15:08.022Z,8.40
2022-08-14T06:17:46.247Z,7.33
2022-08-14T06:20:14.458Z,8.07
2022-08-14T06:22:41.871Z,7.80
2022-08-14T06:25:09.666Z,8.00
2022-08-14T06:27:45.091Z,7.70
2022-08-14T06:30:20.146Z,7.93
2022-08-14T06:32:47.199Z,7.60
2022-08-14T06:35:23.409Z,7.73
2022-08-14T06:38:00.247Z,7.90
2022-08-14T06:40:34.209Z,7.47
2022-08-14T06:43:03.966Z,7.30
2022-08-14T06:45:34.870Z,7.67
2022-08-14T06:48:06.231Z,6.70
2022-08-14T06:50:39.690Z,7.70
2022-08-14T06:53:07.291Z,7.57
2022-08-14T06:55:34.411Z,6.93
2022-08-14T06:58:03.985Z,7.30
2022-08-14T07:00:32.856Z,7.53
2022-08-14T07:03:19.287Z,6.90
2022-08-14T07:05:55.468Z,6.93
2022-08-14T07:08:29.758Z,7.33
2022-08-14T07:11:00.909Z,7.53
2022-08-14T07:13:28.351Z,7.37
2022-08-14T07:16:05.495Z,7.23
2022-08-14T07:18:33.757Z,7.27
2022-08-14T07:21:02.630Z,7.43
2022-08-14T07:23:31.304Z,6.93
2022-08-14T07:25:59.194Z,6.97
2022-08-14T07:28:26.478Z,7.20
2022-08-14T07:31:05.131Z,6.70
2022-08-14T07:33:50.550Z,6.30
2022-08-14T07:36:30.350Z,5.73
2022-08-14T07:38:58.802Z,5.73
2022-08-14T07:41:33.948Z,5.67
2022-08-14T07:44:28.618Z,5.63
2022-08-14T07:46:50.317Z,5.07
2022-08-14T07:49:18.162Z,5.73
2022-08-14T07:51:45.747Z,5.10
2022-08-14T07:54:23.316Z,4.70
2022-08-14T07:56:58.169Z,5.27
2022-08-14T07:59:42.388Z,5.20
2022-08-14T08:02:19.651Z,5.20
2022-08-14T08:04:55.140Z,4.90
2022-08-14T08:07:23.826Z,5.70
2022-08-14T08:09:55.754Z,5.37
2022-08-14T08:12:29.739Z,4.90
2022-08-14T08:15:03.239Z,5.13
2022-08-14T08:17:38.273Z,4.87
2022-08-14T08:20:11.690Z,5.43
2022-08-14T08:22:48.264Z,5.10
2022-08-14T08:25:17.862Z,5.07
2022-08-14T08:28:08.610Z,4.97
2022-08-14T08:30:38.031Z,4.50
2022-08-14T08:33:17.320Z,4.80
2022-08-14T08:35:47.252Z,5.10
2022-08-14T08:39:17.569Z,5.23
2022-08-14T08:41:10.868Z,4.97
2022-08-14T08:43:39.397Z,5.37
2022-08-14T08:46:18.638Z,4.50
2022-08-14T08:48:53.631Z,4.47
2022-08-14T08:51:22.689Z,4.70
2022-08-14T08:54:15.393Z,4.80
2022-08-14T08:56:48.489Z,4.50
2022-08-14T08:59:16.611Z,4.70
2022-08-14T09:01:48.421Z,4.07
2022-08-14T09:04:20.264Z,4.57
2022-08-14T09:07:00.357Z,3.83
2022-08-14T09:09:53.687Z,4.20
2022-08-14T09:12:25.489Z,4.23
2022-08-14T09:14:55.725Z,4.23
2022-08-14T09:17:25.719Z,4.60
2022-08-14T09:19:53.536Z,4.07
2022-08-14T09:22:35.742Z,4.17
2022-08-14T09:25:07.040Z,3.67
2022-08-14T09:27:35.114Z,3.80
2022-08-14T09:30:31.692Z,3.87
2022-08-14T09:33:11.601Z,3.90
2022-08-14T09:35:48.835Z,4.60
2022-08-14T09:38:30.670Z,4.00
2022-08-14T09:41:00.661Z,4.40
2022-08-14T09:43:31.008Z,4.53
2022-08-14T09:46:02.727Z,4.40
2022-08-14T09:48:31.069Z,4.47
2022-08-14T09:54:18.710Z,4.30
2022-08-14T09:56:43.232Z,4.43
2022-08-14T09:59:15.438Z,4.18
2022-08-14T10:01:52.927Z,4.45
2022-08-14T10:04:34.943Z,4.70
2022-08-14T10:07:05.070Z,4.72
2022-08-14T10:09:34.807Z,4.63
2022-08-14T10:12:04.291Z,4.45
2022-08-14T10:14:35.736Z,5.10
2022-08-14T10:17:06.075Z,4.43
2022-08-14T10:19:35.724Z,4.00
2022-08-14T10:23:14.744Z,4.40
2022-08-14T10:24:55.832Z,4.97
2022-08-14T10:27:26.581Z,4.70
2022-08-14T10:29:55.090Z,4.78
2022-08-14T10:32:28.752Z,4.80
2022-08-14T10:35:13.816Z,4.43
2022-08-14T10:37:51.801Z,4.88
2022-08-14T10:40:44.275Z,4.40
2022-08-14T10:43:16.569Z,5.32
2022-08-14T10:46:04.157Z,4.70
2022-08-14T10:48:44.874Z,4.65
2022-08-14T10:51:16.715Z,4.70
2022-08-14T10:53:56.769Z,4.68
2022-08-14T10:56:34.280Z,5.10
2022-08-14T10:59:07.176Z,4.65
2022-08-14T11:01:40.967Z,4.20
2022-08-14T11:04:19.812Z,4.55
2022-08-14T11:06:55.485Z,4.57
2022-08-14T11:09:23.163Z,4.05
2022-08-14T11:11:55.540Z,4.72
2022-08-14T11:14:23.152Z,4.38
2022-08-14T11:16:54.011Z,4.30
2022-08-14T11:19:24.376Z,4.50
2022-08-14T11:21:55.490Z,3.90
2022-08-14T11:24:50.981Z,3.97
2022-08-14T11:27:13.332Z,4.20
2022-08-14T11:29:40.889Z,4.03
2022-08-14T11:32:07.986Z,3.97
2022-08-14T11:34:37.963Z,4.53
2022-08-14T11:37:22.948Z,4.68
2022-08-14T11:39:56.163Z,4.13
2022-08-14T11:42:56.667Z,4.72
2022-08-14T11:45:18.693Z,4.80
2022-08-14T11:48:11.129Z,4.80
2022-08-14T11:50:38.187Z,4.63
2022-08-14T11:53:07.077Z,4.80
2022-08-14T11:55:36.132Z,4.80
2022-08-14T11:58:08.710Z,4.72
2022-08-14T12:00:46.432Z,5.00
2022-08-14T12:03:16.221Z,4.80
2022-08-14T12:05:44.918Z,5.05
2022-08-14T12:08:13.461Z,4.60
2022-08-14T12:10:42.713Z,4.18
2022-08-14T12:13:20.726Z,4.32
2022-08-14T12:15:57.278Z,3.90
2022-08-14T12:18:32.666Z,4.13
2022-08-14T12:21:09.976Z,4.38
2022-08-14T12:23:43.483Z,4.03
2022-08-14T12:26:40.015Z,4.03
2022-08-14T12:29:14.428Z,3.97
2022-08-14T12:31:46.996Z,4.20
2022-08-14T12:34:20.191Z,3.67
2022-08-14T12:36:49.790Z,3.88
2022-08-14T12:39:19.114Z,4.20
2022-08-14T12:42:01.407Z,4.35
2022-08-14T12:44:29.215Z,4.18
2022-08-14T12:47:13.292Z,3.85
2022-08-14T12:49:52.492Z,4.00
2022-08-14T12:52:45.180Z,4.20
2022-08-14T12:55:21.607Z,4.20
2022-08-14T12:57:53.330Z,4.53
2022-08-14T13:00:25.539Z,4.15
2022-08-14T13:02:55.409Z,3.75
2022-08-14T13:05:23.968Z,4.78
2022-08-14T13:07:51.649Z,4.20
2022-08-14T13:10:47.517Z,3.90
2022-08-14T13:13:15.665Z,3.60
2022-08-14T13:15:45.239Z,3.88
2022-08-14T13:18:13.835Z,3.83
2022-08-14T13:20:51.382Z,4.13
2022-08-14T13:23:30.677Z,4.00
2022-08-14T13:25:59.317Z,4.43
2022-08-14T13:28:33.578Z,4.10
2022-08-14T13:31:01.311Z,4.60
2022-08-14T13:33:29.116Z,4.32
2022-08-14T13:35:56.551Z,4.07
2022-08-14T13:38:25.498Z,4.13
2022-08-14T13:40:55.963Z,4.18
2022-08-14T13:43:24.352Z,4.65
2022-08-14T13:46:01.468Z,4.68
2022-08-14T13:48:33.486Z,4.70
2022-08-14T13:51:05.944Z,4.38
2022-08-14T13:54:07.139Z,4.35
2022-08-14T13:56:39.311Z,4.38
2022-08-14T13:59:06.739Z,4.40
2022-08-14T14:01:38.275Z,4.38
2022-08-14T14:04:22.641Z,4.50
2022-08-14T14:06:51.377Z,3.57
2022-08-14T14:09:21.357Z,3.63
2022-08-14T14:11:53.112Z,3.43
2022-08-14T14:14:44.900Z,4.05
2022-08-14T14:17:13.780Z,3.95
2022-08-14T14:19:46.595Z,3.80
2022-08-14T14:22:35.654Z,4.03
2022-08-14T14:25:04.533Z,3.90
2022-08-14T14:27:41.505Z,3.53
2022-08-14T14:30:09.125Z,4.70
2022-08-14T14:33:04.303Z,5.23
2022-08-14T14:35:38.439Z,4.90
2022-08-14T14:38:08.559Z,4.77
2022-08-14T14:40:53.623Z,5.15
2022-08-14T14:43:25.356Z,5.00
2022-08-14T14:45:54.389Z,5.00
2022-08-14T14:48:23.164Z,4.72
2022-08-14T14:50:56.912Z,5.00
2022-08-14T14:53:25.355Z,5.43
2022-08-14T14:56:48.202Z,5.50
2022-08-14T14:58:42.933Z,4.82
2022-08-14T15:01:15.651Z,5.00
2022-08-14T15:03:45.501Z,5.17
2022-08-14T15:06:12.810Z,4.70
2022-08-14T15:08:56.956Z,4.90
2022-08-14T15:11:30.488Z,4.70
2022-08-14T15:14:00.122Z,4.83
2022-08-14T15:16:27.764Z,5.10
2022-08-14T15:18:55.017Z,6.37
2022-08-14T15:21:22.902Z,5.20
2022-08-14T15:23:50.502Z,5.10
2022-08-14T15:26:24.000Z,5.23
2022-08-14T15:29:02.200Z,5.00
2022-08-14T15:31:31.958Z,5.20
2022-08-14T15:34:44.380Z,5.60
2022-08-14T15:36:58.336Z,5.43
2022-08-14T15:39:25.987Z,4.70
2022-08-14T15:41:57.987Z,5.27
2022-08-14T15:44:29.921Z,5.27
2022-08-14T15:47:01.158Z,5.10
2022-08-14T15:49:34.399Z,5.10
2022-08-14T15:52:03.168Z,5.50
2022-08-14T15:54:31.570Z,5.33
2022-08-14T15:56:59.626Z,4.77
2022-08-14T15:59:47.885Z,5.10
2022-08-14T16:02:16.691Z,5.03
2022-08-14T16:04:45.917Z,5.40
2022-08-14T16:07:18.399Z,5.60
2022-08-14T16:10:01.308Z,4.77
2022-08-14T16:12:45.950Z,5.37
2022-08-14T16:15:22.535Z,5.23
2022-08-14T16:17:51.204Z,5.00
2022-08-14T16:20:41.983Z,5.50
2022-08-14T16:23:11.573Z,5.30
2022-08-14T16:25:42.357Z,5.33
2022-08-14T16:28:09.858Z,5.53
2022-08-14T16:30:36.897Z,5.30
2022-08-14T16:33:05.847Z,5.20
2022-08-14T16:35:42.593Z,5.80
2022-08-14T16:38:46.101Z,4.90
2022-08-14T16:41:27.011Z,5.40
2022-08-14T16:43:59.217Z,5.00
2022-08-14T16:46:27.050Z,5.20
2022-08-14T16:48:58.463Z,5.47
2022-08-14T16:51:28.137Z,5.83
2022-08-14T16:53:59.241Z,5.77
2022-08-14T16:56:30.856Z,5.30
2022-08-14T16:59:08.280Z,5.50
2022-08-14T17:01:35.930Z,5.60
2022-08-14T17:04:04.561Z,5.13
2022-08-14T17:06:45.550Z,5.50
2022-08-14T17:09:28.106Z,5.20
2022-08-14T17:12:28.453Z,5.13
2022-08-14T17:14:57.592Z,5.07
2022-08-14T17:17:41.118Z,5.60
2022-08-14T17:20:54.747Z,5.57
2022-08-14T17:23:00.048Z,5.17
2022-08-14T17:25:30.032Z,5.43
2022-08-14T17:28:52.719Z,5.27
2022-08-14T17:30:59.570Z,5.78
2022-08-14T17:33:32.914Z,5.57
2022-08-14T17:36:10.922Z,5.47
2022-08-14T17:39:06.477Z,5.67
2022-08-14T17:41:37.498Z,5.40
2022-08-14T17:44:13.524Z,5.60
2022-08-14T17:46:57.005Z,6.00
2022-08-14T17:49:28.344Z,5.83
2022-08-14T17:52:03.677Z,5.63
2022-08-14T17:54:36.212Z,5.40
2022-08-14T17:57:13.986Z,5.40
2022-08-14T17:59:48.551Z,5.30
2022-08-14T18:02:16.945Z,5.23
2022-08-14T18:04:44.558Z,4.93
2022-08-14T18:07:50.290Z,5.23
2022-08-14T18:10:51.883Z,5.27
2022-08-14T18:12:51.406Z,5.80
2022-08-14T18:15:18.519Z,5.63
2022-08-14T18:17:52.496Z,5.33
2022-08-14T18:21:24.841Z,5.53
2022-08-14T18:23:07.996Z,5.53
2022-08-14T18:25:42.083Z,5.50
2022-08-14T18:28:16.081Z,5.23
2022-08-14T18:30:58.535Z,6.17
2022-08-14T18:33:26.263Z,5.57
2022-08-14T18:35:59.845Z,5.73
2022-08-14T18:38:55.390Z,6.10
2022-08-14T18:41:36.424Z,5.20
2022-08-14T18:44:05.196Z,5.30
2022-08-14T18:47:00.596Z,6.00
2022-08-14T18:49:33.403Z,6.33
2022-08-14T18:52:13.242Z,6.30
2022-08-14T18:54:51.642Z,6.17
2022-08-14T18:57:27.192Z,6.17
2022-08-14T19:00:32.152Z,6.13
2022-08-14T19:03:00.729Z,6.20
2022-08-14T19:05:37.754Z,6.20
2022-08-14T19:08:29.409Z,6.07
2022-08-14T19:11:03.932Z,5.83
2022-08-14T19:13:48.613Z,5.83
2022-08-14T19:16:23.358Z,6.10
2022-08-14T19:18:50.572Z,5.83
2022-08-14T19:21:29.964Z,5.97
2022-08-14T19:24:27.854Z,6.10
2022-08-14T19:27:19.591Z,6.17
2022-08-14T19:30:20.585Z,6.60
2022-08-14T19:32:50.951Z,6.33
2022-08-14T19:35:23.171Z,6.07
2022-08-14T19:37:54.813Z,6.37
2022-08-14T19:40:40.295Z,6.40
2022-08-14T19:43:09.201Z,5.37
2022-08-14T19:45:37.884Z,5.53
2022-08-14T19:48:11.616Z,6.37
2022-08-14T19:50:41.295Z,6.10
2022-08-14T19:53:17.291Z,5.93
2022-08-14T19:55:56.181Z,6.80
2022-08-14T19:58:30.034Z,5.47
2022-08-14T20:01:01.730Z,5.97
2022-08-14T20:04:00.664Z,6.37
2022-08-14T20:06:43.241Z,6.30
2022-08-14T20:11:04.857Z,6.57
2022-08-14T20:12:04.909Z,6.20
2022-08-14T20:14:36.095Z,6.40
2022-08-14T20:17:06.714Z,6.37
2022-08-14T20:19:37.861Z,6.90
2022-08-14T20:22:36.565Z,5.97
2022-08-14T20:25:10.001Z,6.03
2022-08-14T20:27:40.165Z,6.57
2022-08-14T20:30:32.922Z,6.90
2022-08-14T20:33:02.511Z,6.50
2022-08-14T20:35:36.192Z,7.10
2022-08-14T20:38:31.859Z,6.67
2022-08-14T20:40:57.010Z,6.90
2022-08-14T20:43:44.610Z,6.47
2022-08-14T20:46:29.525Z,6.50
2022-08-14T20:48:58.248Z,6.20
2022-08-14T20:51:36.771Z,6.73
2022-08-14T20:54:06.040Z,6.87
2022-08-14T20:56:41.111Z,6.90
2022-08-14T20:59:17.601Z,6.97
2022-08-14T21:01:50.077Z,6.17
2022-08-14T21:04:35.997Z,6.63
2022-08-14T21:07:26.099Z,6.23
2022-08-14T21:10:36.506Z,7.40
2022-08-14T21:13:11.911Z,6.67
2022-08-14T21:15:41.592Z,6.70
2022-08-14T21:18:09.680Z,7.07
2022-08-14T21:20:40.127Z,7.37
2022-08-14T21:23:07.329Z,6.90
2022-08-14T21:25:34.760Z,5.90
2022-08-14T21:28:04.245Z,6.40
2022-08-14T21:30:51.684Z,6.63
2022-08-14T21:33:21.537Z,6.70
2022-08-14T21:35:54.959Z,6.17
2022-08-14T21:38:33.549Z,7.27
2022-08-14T21:41:43.409Z,6.60
2022-08-14T21:44:17.956Z,6.73
2022-08-14T21:46:49.863Z,6.23
2022-08-14T21:49:18.192Z,6.27
2022-08-14T21:51:54.539Z,6.03
2022-08-14T21:54:49.100Z,5.93
2022-08-14T21:57:53.562Z,5.67
2022-08-14T22:00:30.246Z,5.70
2022-08-14T22:03:01.069Z,5.97
2022-08-14T22:05:29.580Z,6.10
2022-08-14T22:07:57.512Z,6.00
2022-08-14T22:10:24.533Z,5.63
2022-08-14T22:13:00.399Z,5.70
2022-08-14T22:15:28.581Z,4.90
2022-08-14T22:17:58.195Z,5.80
2022-08-14T22:20:28.729Z,5.60
2022-08-14T22:22:56.857Z,5.60
2022-08-14T22:25:31.960Z,6.07
2022-08-14T22:28:02.913Z,5.23
2022-08-14T22:30:30.378Z,5.13
2022-08-14T22:32:59.905Z,5.10
2022-08-14T22:35:27.487Z,5.80
2022-08-14T22:38:35.960Z,5.53
2022-08-14T22:40:58.391Z,5.40
2022-08-14T22:43:31.357Z,5.77
2022-08-14T22:46:02.288Z,5.20
2022-08-14T22:48:29.700Z,5.30
2022-08-14T22:50:57.122Z,4.83
2022-08-14T22:53:29.293Z,5.47
2022-08-14T22:55:56.925Z,5.67
2022-08-14T22:58:30.119Z,5.80
2022-08-14T23:01:00.109Z,5.90
2022-08-14T23:03:27.459Z,6.17
2022-08-14T23:05:55.748Z,6.90
2022-08-14T23:09:01.807Z,6.20
2022-08-14T23:11:10.458Z,6.10
2022-08-14T23:13:43.710Z,6.30
2022-08-14T23:16:20.224Z,6.33
2022-08-14T23:18:54.078Z,6.17
2022-08-14T23:21:24.160Z,5.63
2022-08-14T23:23:54.965Z,5.90
2022-08-14T23:26:49.479Z,6.20
2022-08-14T23:29:11.283Z,6.23
2022-08-14T23:31:38.499Z,5.27
2022-08-14T23:34:07.710Z,5.27
2022-08-14T23:36:37.865Z,5.67
2022-08-14T23:39:24.473Z,6.10
2022-08-14T23:41:57.821Z,5.83
2022-08-14T23:44:32.195Z,5.87
2022-08-14T23:47:10.712Z,5.83
2022-08-14T23:50:00.390Z,5.80
2022-08-14T23:53:04.134Z,5.73
2022-08-14T23:55:14.173Z,5.70
2022-08-14T23:57:44.067Z,6.13
